createdAt,value
2019-01-11T00:12:26.397Z,2.1
2019-01-11T00:29:00.526Z,2.1
2019-01-11T00:45:34.254Z,2.1
2019-01-11T01:02:08.098Z,2.1
2019-01-11T01:18:41.964Z,2.1
2019-01-11T01:35:15.846Z,2.1
2019-01-11T01:51:49.746Z,2.1
2019-01-11T02:08:23.639Z,2.1
2019-01-11T02:24:57.590Z,2.1
2019-01-11T02:41:31.569Z,2.1
2019-01-11T02:58:05.600Z,2.1
2019-01-11T03:14:39.598Z,2.1
2019-01-11T03:47:47.755Z,2.4
2019-01-11T04:04:21.891Z,2.4
2019-01-11T04:37:30.315Z,2.7
2019-01-11T04:54:04.946Z,2.7
2019-01-11T05:10:39.037Z,2.7
2019-01-11T05:27:13.504Z,2.7
2019-01-11T05:43:47.868Z,2.7
2019-01-11T06:16:57.022Z,3.0
2019-01-11T06:33:31.668Z,3.0
2019-01-11T07:06:41.267Z,3.4
2019-01-11T07:23:16.288Z,3.4
2019-01-11T07:39:50.599Z,3.4
2019-01-11T07:56:25.563Z,3.7
2019-01-11T08:13:00.644Z,4.0
2019-01-11T08:29:35.842Z,4.0
2019-01-11T08:46:11.547Z,4.0
2019-01-11T09:02:46.224Z,4.0
2019-01-11T09:19:21.669Z,4.3
2019-01-11T09:35:57.341Z,4.6
2019-01-11T09:52:33.084Z,5.0
2019-01-11T10:09:08.580Z,5.0
2019-01-11T10:25:44.471Z,5.3
2019-01-11T10:42:20.662Z,5.6
2019-01-11T10:58:57.018Z,5.9
2019-01-11T11:15:33.542Z,6.2
2019-01-11T11:32:10.989Z,6.6
2019-01-11T11:48:47.142Z,6.6
2019-01-11T12:05:24.172Z,6.9
2019-01-11T12:22:01.755Z,6.9
2019-01-11T12:38:38.548Z,7.2
2019-01-11T12:55:15.665Z,7.2
2019-01-11T13:11:53.614Z,7.5
2019-01-11T13:28:31.474Z,7.5
2019-01-11T13:45:09.246Z,7.5
2019-01-11T14:01:47.363Z,7.8
2019-01-11T14:18:25.573Z,7.8
2019-01-11T14:35:03.835Z,7.8
2019-01-11T14:51:41.620Z,7.5
2019-01-11T15:08:19.778Z,7.5
2019-01-11T15:24:57.592Z,7.5
2019-01-11T15:41:35.605Z,7.5
2019-01-11T15:58:13.749Z,7.5
2019-01-11T16:14:51.585Z,7.5
2019-01-11T16:31:29.612Z,7.8
2019-01-11T16:48:07.815Z,7.5
2019-01-11T17:04:45.029Z,7.5
2019-01-11T17:21:22.652Z,7.5
2019-01-11T17:37:59.828Z,7.5
2019-01-11T17:54:37.327Z,7.5
2019-01-11T18:11:14.539Z,7.5
2019-01-11T18:27:53.124Z,7.5
